Sauk Centre, MN

6:32 PM CST on February 13, 2016 (GMT -0600)
Sauk Centre | | Change Station
CLOSE
Current Station
Airport
Location: Sauk Centre,
Elevation: 1240 ft
Nearby Weather Stations

Elev 1240 ft 45.71 °N, 94.93 °W | Updated 19 minutes ago

Overcast
Overcast
9 °F
Feels Like -7 °F
N
13
Wind Variable Wind from ESE

Today
High -- | Low -- °F
--% Chance of Precip.
Yesterday
High -- | Low -- °F
Precip. -- in
Pressure 30.30 in
Visibility 10.0 miles
Clouds Scattered Clouds 5500 ft
Overcast 7000 ft
Windchill -7 °F
Dew Point -2 °F
Humidity 60%
Rainfall 0.00 in
Snow Depth Not available.
7:25 AM 5:43 PM
Waxing Crescent, 35% visible
METAR KD39 140013Z AUTO 12011KT 10SM SCT055 OVC070 M13/M19 A3030 RMK AO2 T11281191
Pressure 30.30 in
Visibility 10.0 miles
Clouds Scattered Clouds 5500 ft
Overcast 7000 ft
Windchill -7 °F
Dew Point -2 °F
Humidity 60%
Rainfall 0.00 in
Snow Depth Not available.
7:25 AM 5:43 PM
Waxing Crescent, 35% visible
METAR KD39 140013Z AUTO 12011KT 10SM SCT055 OVC070 M13/M19 A3030 RMK AO2 T11281191

10-Day Weather Forecast

Almanac

Astronomy

Feb. 13, 2016 Rise Set
Actual Time
Civil Twilight
Nautical Twilight
Astronomical Twilight
Moon
Length of Visible Light
Length of Day
Tomorrow will be .
, % of the Moon is Illuminated

Today's Extremes

State Highs State Lows

Community

WunderPhotos

Upload Photos

1,892,712 photos uploaded!

WunderBlog® & News

Nearby

Air Quality

  Air Quality AQ Index Pollutant
Not available.

Snow Depth

Station Depth Elevation

Earthquake Activity

City Distance Mag. Time & Date
Minimum magnitude displayed is 2.5.

Coastal Water Temperatures

Place Temperature

Stations

Nearby Weather Stations

Station Location Temp. Windchill Dew Point Humidity Wind Precip. Elev Updated Type
                   

Watches & Warnings

There are currently no watches in effect.